sensor_id;sensor_type;location;lat;lon;timestamp;temperature;humidity
52943;DHT22;38809;53.300;6.614;2023-06-14T01:48:55;13.70;99.90
52943;DHT22;38809;53.300;6.614;2023-06-14T01:51:20;13.70;99.90
52943;DHT22;38809;53.300;6.614;2023-06-14T01:53:46;13.70;99.90
52943;DHT22;38809;53.300;6.614;2023-06-14T01:56:12;13.60;99.90
52943;DHT22;38809;53.300;6.614;2023-06-14T01:58:38;13.70;99.90
52943;DHT22;38809;53.300;6.614;2023-06-14T02:01:04;13.50;99.90
52943;DHT22;38809;53.300;6.614;2023-06-14T02:03:30;13.60;99.90
52943;DHT22;38809;53.300;6.614;2023-06-14T02:05:56;13.60;99.90
52943;DHT22;38809;53.300;6.614;2023-06-14T02:08:21;13.50;99.90
52943;DHT22;38809;53.300;6.614;2023-06-14T02:10:48;13.60;99.90
52943;DHT22;38809;53.300;6.614;2023-06-14T02:13:13;13.70;99.90
52943;DHT22;38809;53.300;6.614;2023-06-14T02:15:39;13.60;99.90
52943;DHT22;38809;53.300;6.614;2023-06-14T02:18:05;13.50;99.90
52943;DHT22;38809;53.300;6.614;2023-06-14T02:20:31;13.60;99.90
52943;DHT22;38809;53.300;6.614;2023-06-14T02:22:56;13.40;99.90
52943;DHT22;38809;53.300;6.614;2023-06-14T02:25:22;13.40;99.90
52943;DHT22;38809;53.300;6.614;2023-06-14T02:27:47;13.40;99.90
52943;DHT22;38809;53.300;6.614;2023-06-14T02:30:13;13.30;99.90
52943;DHT22;38809;53.300;6.614;2023-06-14T02:32:39;13.30;99.90
52943;DHT22;38809;53.300;6.614;2023-06-14T02:35:05;13.30;99.90
52943;DHT22;38809;53.300;6.614;2023-06-14T02:37:31;13.30;99.90
52943;DHT22;38809;53.300;6.614;2023-06-14T02:39:57;13.30;99.90
52943;DHT22;38809;53.300;6.614;2023-06-14T02:42:22;13.40;99.90
52943;DHT22;38809;53.300;6.614;2023-06-14T02:44:48;13.30;99.90
52943;DHT22;38809;53.300;6.614;2023-06-14T02:47:19;13.30;99.90
52943;DHT22;38809;53.300;6.614;2023-06-14T02:49:45;13.40;99.90
52943;DHT22;38809;53.300;6.614;2023-06-14T02:52:13;13.30;99.90
52943;DHT22;38809;53.300;6.614;2023-06-14T02:54:39;13.30;99.90
52943;DHT22;38809;53.300;6.614;2023-06-14T02:57:05;13.30;99.90
52943;DHT22;38809;53.300;6.614;2023-06-14T02:59:33;13.30;99.90
52943;DHT22;38809;53.300;6.614;2023-06-14T03:01:58;13.60;99.90
52943;DHT22;38809;53.300;6.614;2023-06-14T03:04:24;13.30;99.90
52943;DHT22;38809;53.300;6.614;2023-06-14T03:06:51;13.20;99.90
52943;DHT22;38809;53.300;6.614;2023-06-14T03:09:17;13.30;99.90
52943;DHT22;38809;53.300;6.614;2023-06-14T03:11:42;13.10;99.90
52943;DHT22;38809;53.300;6.614;2023-06-14T03:14:08;13.10;99.90
52943;DHT22;38809;53.300;6.614;2023-06-14T03:16:34;13.10;99.90
52943;DHT22;38809;53.300;6.614;2023-06-14T03:19:00;13.00;99.90
52943;DHT22;38809;53.300;6.614;2023-06-14T03:21:25;13.00;99.90
52943;DHT22;38809;53.300;6.614;2023-06-14T03:23:51;13.00;99.90
52943;DHT22;38809;53.300;6.614;2023-06-14T03:26:18;13.00;99.90
52943;DHT22;38809;53.300;6.614;2023-06-14T03:28:44;12.90;99.90
52943;DHT22;38809;53.300;6.614;2023-06-14T03:31:10;12.90;99.90
52943;DHT22;38809;53.300;6.614;2023-06-14T03:33:36;12.90;99.90
52943;DHT22;38809;53.300;6.614;2023-06-14T03:36:02;12.90;99.90
52943;DHT22;38809;53.300;6.614;2023-06-14T03:38:28;13.00;99.90
52943;DHT22;38809;53.300;6.614;2023-06-14T03:40:54;13.30;99.90
52943;DHT22;38809;53.300;6.614;2023-06-14T03:43:19;13.00;99.90
52943;DHT22;38809;53.300;6.614;2023-06-14T03:45:45;13.10;99.90
52943;DHT22;38809;53.300;6.614;2023-06-14T03:48:11;13.10;99.90
52943;DHT22;38809;53.300;6.614;2023-06-14T03:50:36;13.10;99.90
52943;DHT22;38809;53.300;6.614;2023-06-14T03:53:05;13.00;99.90
52943;DHT22;38809;53.300;6.614;2023-06-14T03:55:30;13.00;99.90
52943;DHT22;38809;53.300;6.614;2023-06-14T03:57:57;13.10;99.90
52943;DHT22;38809;53.300;6.614;2023-06-14T04:00:22;13.10;99.90
52943;DHT22;38809;53.300;6.614;2023-06-14T04:02:48;13.10;99.90
52943;DHT22;38809;53.300;6.614;2023-06-14T04:05:14;13.20;99.90
52943;DHT22;38809;53.300;6.614;2023-06-14T04:07:42;13.20;99.90
52943;DHT22;38809;53.300;6.614;2023-06-14T04:10:13;13.20;99.90
52943;DHT22;38809;53.300;6.614;2023-06-14T04:12:39;13.30;99.90
52943;DHT22;38809;53.300;6.614;2023-06-14T04:15:05;13.30;99.90
52943;DHT22;38809;53.300;6.614;2023-06-14T04:17:34;13.40;99.90
52943;DHT22;38809;53.300;6.614;2023-06-14T04:20:00;13.40;99.90
52943;DHT22;38809;53.300;6.614;2023-06-14T04:22:26;13.40;99.90
52943;DHT22;38809;53.300;6.614;2023-06-14T04:24:56;13.50;99.90
52943;DHT22;38809;53.300;6.614;2023-06-14T04:27:22;13.60;99.90
52943;DHT22;38809;53.300;6.614;2023-06-14T04:29:51;13.80;99.90
52943;DHT22;38809;53.300;6.614;2023-06-14T04:32:25;13.90;99.90
52943;DHT22;38809;53.300;6.614;2023-06-14T04:34:55;14.00;99.90
52943;DHT22;38809;53.300;6.614;2023-06-14T04:37:21;14.00;99.90
52943;DHT22;38809;53.300;6.614;2023-06-14T04:39:47;14.10;99.90
52943;DHT22;38809;53.300;6.614;2023-06-14T04:42:13;14.20;99.90
52943;DHT22;38809;53.300;6.614;2023-06-14T04:44:43;14.30;99.90
52943;DHT22;38809;53.300;6.614;2023-06-14T04:47:09;14.40;99.90
52943;DHT22;38809;53.300;6.614;2023-06-14T04:49:35;14.50;99.90
52943;DHT22;38809;53.300;6.614;2023-06-14T04:52:00;14.60;99.90
52943;DHT22;38809;53.300;6.614;2023-06-14T04:54:27;14.60;99.90
52943;DHT22;38809;53.300;6.614;2023-06-14T04:56:52;14.80;99.90
52943;DHT22;38809;53.300;6.614;2023-06-14T04:59:20;15.00;99.90
52943;DHT22;38809;53.300;6.614;2023-06-14T05:01:48;15.30;99.90
52943;DHT22;38809;53.300;6.614;2023-06-14T05:04:17;15.50;99.90
52943;DHT22;38809;53.300;6.614;2023-06-14T05:06:43;15.50;99.90
52943;DHT22;38809;53.300;6.614;2023-06-14T05:09:13;16.10;99.90
52943;DHT22;38809;53.300;6.614;2023-06-14T05:11:40;16.20;99.90
52943;DHT22;38809;53.300;6.614;2023-06-14T05:14:07;16.30;99.90
52943;DHT22;38809;53.300;6.614;2023-06-14T05:16:33;16.60;99.90
52943;DHT22;38809;53.300;6.614;2023-06-14T05:18:58;16.60;99.90
52943;DHT22;38809;53.300;6.614;2023-06-14T05:21:24;16.70;99.90
52943;DHT22;38809;53.300;6.614;2023-06-14T05:23:50;16.90;99.90
52943;DHT22;38809;53.300;6.614;2023-06-14T05:26:16;16.70;99.90
52943;DHT22;38809;53.300;6.614;2023-06-14T05:28:42;16.90;99.90
52943;DHT22;38809;53.300;6.614;2023-06-14T05:31:07;16.90;99.90
52943;DHT22;38809;53.300;6.614;2023-06-14T05:33:33;16.70;99.90
52943;DHT22;38809;53.300;6.614;2023-06-14T05:35:58;16.80;99.90
52943;DHT22;38809;53.300;6.614;2023-06-14T05:38:24;16.70;99.90
52943;DHT22;38809;53.300;6.614;2023-06-14T05:40:50;16.60;99.90
52943;DHT22;38809;53.300;6.614;2023-06-14T05:43:16;16.50;99.90
52943;DHT22;38809;53.300;6.614;2023-06-14T05:45:42;16.60;99.90
52943;DHT22;38809;53.300;6.614;2023-06-14T05:48:07;16.80;99.90
52943;DHT22;38809;53.300;6.614;2023-06-14T05:50:33;16.90;99.90
52943;DHT22;38809;53.300;6.614;2023-06-14T05:52:59;16.90;99.90
52943;DHT22;38809;53.300;6.614;2023-06-14T05:55:24;16.80;99.90
52943;DHT22;38809;53.300;6.614;2023-06-14T05:57:50;16.90;99.90
52943;DHT22;38809;53.300;6.614;2023-06-14T06:00:16;16.80;99.90
52943;DHT22;38809;53.300;6.614;2023-06-14T06:02:42;17.00;99.90
52943;DHT22;38809;53.300;6.614;2023-06-14T06:05:11;17.00;99.90
52943;DHT22;38809;53.300;6.614;2023-06-14T06:07:37;17.00;99.90
52943;DHT22;38809;53.300;6.614;2023-06-14T06:10:03;17.10;99.90
52943;DHT22;38809;53.300;6.614;2023-06-14T06:12:29;17.10;99.90
52943;DHT22;38809;53.300;6.614;2023-06-14T06:14:54;17.20;99.90
52943;DHT22;38809;53.300;6.614;2023-06-14T06:17:20;17.20;99.90
52943;DHT22;38809;53.300;6.614;2023-06-14T06:19:46;17.20;99.90
52943;DHT22;38809;53.300;6.614;2023-06-14T06:22:11;17.20;99.90
52943;DHT22;38809;53.300;6.614;2023-06-14T06:24:37;17.30;99.90
52943;DHT22;38809;53.300;6.614;2023-06-14T06:27:03;17.40;99.90
52943;DHT22;38809;53.300;6.614;2023-06-14T06:29:28;17.40;99.90
52943;DHT22;38809;53.300;6.614;2023-06-14T06:31:54;17.30;99.90
52943;DHT22;38809;53.300;6.614;2023-06-14T06:34:21;17.40;99.90
52943;DHT22;38809;53.300;6.614;2023-06-14T06:36:47;17.40;99.90
52943;DHT22;38809;53.300;6.614;2023-06-14T06:39:13;17.40;99.90
52943;DHT22;38809;53.300;6.614;2023-06-14T06:41:40;17.50;99.90
52943;DHT22;38809;53.300;6.614;2023-06-14T06:44:06;17.70;99.90
52943;DHT22;38809;53.300;6.614;2023-06-14T06:46:32;17.80;99.90
52943;DHT22;38809;53.300;6.614;2023-06-14T06:48:57;17.90;99.90
52943;DHT22;38809;53.300;6.614;2023-06-14T06:51:23;18.00;99.90
52943;DHT22;38809;53.300;6.614;2023-06-14T06:53:52;18.50;99.90
52943;DHT22;38809;53.300;6.614;2023-06-14T06:56:18;18.20;99.90
52943;DHT22;38809;53.300;6.614;2023-06-14T06:58:45;18.60;99.90
52943;DHT22;38809;53.300;6.614;2023-06-14T07:01:10;18.90;99.90
52943;DHT22;38809;53.300;6.614;2023-06-14T07:03:37;19.20;99.90
52943;DHT22;38809;53.300;6.614;2023-06-14T07:06:02;19.60;99.90
52943;DHT22;38809;53.300;6.614;2023-06-14T07:08:28;19.90;99.90
52943;DHT22;38809;53.300;6.614;2023-06-14T07:10:53;20.10;99.90
52943;DHT22;38809;53.300;6.614;2023-06-14T07:13:19;20.50;99.90
52943;DHT22;38809;53.300;6.614;2023-06-14T07:15:44;20.80;99.90
52943;DHT22;38809;53.300;6.614;2023-06-14T07:18:10;20.90;99.90
52943;DHT22;38809;53.300;6.614;2023-06-14T07:20:36;21.00;99.90
52943;DHT22;38809;53.300;6.614;2023-06-14T07:23:03;21.10;99.90
52943;DHT22;38809;53.300;6.614;2023-06-14T07:25:29;21.10;99.90
52943;DHT22;38809;53.300;6.614;2023-06-14T07:27:54;21.30;99.90
52943;DHT22;38809;53.300;6.614;2023-06-14T07:30:20;21.60;99.90
52943;DHT22;38809;53.300;6.614;2023-06-14T07:32:46;21.10;99.90
52943;DHT22;38809;53.300;6.614;2023-06-14T07:35:11;21.60;99.90
52943;DHT22;38809;53.300;6.614;2023-06-14T07:37:37;21.80;99.90
52943;DHT22;38809;53.300;6.614;2023-06-14T07:40:03;21.20;99.90
52943;DHT22;38809;53.300;6.614;2023-06-14T07:42:35;21.70;99.90
52943;DHT22;38809;53.300;6.614;2023-06-14T07:45:02;22.00;99.90
52943;DHT22;38809;53.300;6.614;2023-06-14T07:47:27;22.10;99.90
52943;DHT22;38809;53.300;6.614;2023-06-14T07:49:53;22.20;99.90
52943;DHT22;38809;53.300;6.614;2023-06-14T07:52:18;23.40;99.90
52943;DHT22;38809;53.300;6.614;2023-06-14T07:54:44;22.10;99.90
52943;DHT22;38809;53.300;6.614;2023-06-14T07:57:10;21.70;99.90
52943;DHT22;38809;53.300;6.614;2023-06-14T07:59:35;21.90;99.90
52943;DHT22;38809;53.300;6.614;2023-06-14T08:02:01;22.20;99.90
52943;DHT22;38809;53.300;6.614;2023-06-14T08:04:26;22.30;99.90
52943;DHT22;38809;53.300;6.614;2023-06-14T08:06:52;22.30;99.90
52943;DHT22;38809;53.300;6.614;2023-06-14T08:09:17;21.70;99.90
52943;DHT22;38809;53.300;6.614;2023-06-14T08:11:43;22.40;99.90
52943;DHT22;38809;53.300;6.614;2023-06-14T08:14:09;22.60;99.90
52943;DHT22;38809;53.300;6.614;2023-06-14T08:16:34;22.60;99.90
52943;DHT22;38809;53.300;6.614;2023-06-14T08:19:00;22.40;99.90
52943;DHT22;38809;53.300;6.614;2023-06-14T08:21:26;22.30;99.90
52943;DHT22;38809;53.300;6.614;2023-06-14T08:23:54;22.50;99.90
52943;DHT22;38809;53.300;6.614;2023-06-14T08:26:20;22.80;99.90
52943;DHT22;38809;53.300;6.614;2023-06-14T08:28:46;20.60;99.90
52943;DHT22;38809;53.300;6.614;2023-06-14T08:31:11;22.90;99.90
52943;DHT22;38809;53.300;6.614;2023-06-14T08:33:38;22.50;99.90
52943;DHT22;38809;53.300;6.614;2023-06-14T08:36:04;22.70;99.90
52943;DHT22;38809;53.300;6.614;2023-06-14T08:38:30;22.10;99.90
52943;DHT22;38809;53.300;6.614;2023-06-14T08:40:57;23.00;99.90
52943;DHT22;38809;53.300;6.614;2023-06-14T08:43:22;23.10;99.90
52943;DHT22;38809;53.300;6.614;2023-06-14T08:45:48;23.40;99.90
52943;DHT22;38809;53.300;6.614;2023-06-14T08:48:14;22.40;99.90
52943;DHT22;38809;53.300;6.614;2023-06-14T08:50:42;22.90;99.90
52943;DHT22;38809;53.300;6.614;2023-06-14T08:53:08;22.90;99.90
52943;DHT22;38809;53.300;6.614;2023-06-14T08:55:37;22.90;99.90
52943;DHT22;38809;53.300;6.614;2023-06-14T08:58:05;22.60;99.90
52943;DHT22;38809;53.300;6.614;2023-06-14T09:00:30;23.20;99.90
52943;DHT22;38809;53.300;6.614;2023-06-14T09:02:58;23.10;99.90
52943;DHT22;38809;53.300;6.614;2023-06-14T09:05:24;23.10;99.90
52943;DHT22;38809;53.300;6.614;2023-06-14T09:07:50;23.30;99.90
52943;DHT22;38809;53.300;6.614;2023-06-14T09:10:16;23.40;99.90
52943;DHT22;38809;53.300;6.614;2023-06-14T09:12:42;23.70;99.90
52943;DHT22;38809;53.300;6.614;2023-06-14T09:15:09;23.30;99.90
52943;DHT22;38809;53.300;6.614;2023-06-14T09:17:35;23.70;99.90
52943;DHT22;38809;53.300;6.614;2023-06-14T09:20:04;23.90;99.90
52943;DHT22;38809;53.300;6.614;2023-06-14T09:22:32;23.60;99.90
52943;DHT22;38809;53.300;6.614;2023-06-14T09:24:58;22.70;99.90
52943;DHT22;38809;53.300;6.614;2023-06-14T09:27:27;22.50;99.90
52943;DHT22;38809;53.300;6.614;2023-06-14T09:29:53;22.70;99.90
52943;DHT22;38809;53.300;6.614;2023-06-14T09:32:20;22.70;99.90
52943;DHT22;38809;53.300;6.614;2023-06-14T09:34:45;22.90;99.90
52943;DHT22;38809;53.300;6.614;2023-06-14T09:37:11;22.70;99.90
52943;DHT22;38809;53.300;6.614;2023-06-14T09:39:49;22.50;99.90
52943;DHT22;38809;53.300;6.614;2023-06-14T09:42:18;23.20;99.90
52943;DHT22;38809;53.300;6.614;2023-06-14T09:44:47;22.80;99.90
52943;DHT22;38809;53.300;6.614;2023-06-14T09:47:14;22.70;99.90
52943;DHT22;38809;53.300;6.614;2023-06-14T09:49:40;23.00;99.90
52943;DHT22;38809;53.300;6.614;2023-06-14T09:52:06;23.00;99.90
52943;DHT22;38809;53.300;6.614;2023-06-14T09:54:32;23.30;99.90
52943;DHT22;38809;53.300;6.614;2023-06-14T09:56:58;23.30;99.90
52943;DHT22;38809;53.300;6.614;2023-06-14T09:59:25;23.00;99.90
52943;DHT22;38809;53.300;6.614;2023-06-14T10:01:55;23.30;99.90
52943;DHT22;38809;53.300;6.614;2023-06-14T10:04:22;22.80;99.90
52943;DHT22;38809;53.300;6.614;2023-06-14T10:06:47;23.60;99.90
52943;DHT22;38809;53.300;6.614;2023-06-14T10:09:13;23.40;99.90
52943;DHT22;38809;53.300;6.614;2023-06-14T10:11:40;23.40;99.90
52943;DHT22;38809;53.300;6.614;2023-06-14T10:14:09;23.20;99.90
52943;DHT22;38809;53.300;6.614;2023-06-14T10:16:41;23.40;99.90
52943;DHT22;38809;53.300;6.614;2023-06-14T10:19:18;23.70;99.90
52943;DHT22;38809;53.300;6.614;2023-06-14T10:24:37;23.30;99.90
52943;DHT22;38809;53.300;6.614;2023-06-14T10:27:05;23.20;99.90
52943;DHT22;38809;53.300;6.614;2023-06-14T10:30:01;23.30;99.90
52943;DHT22;38809;53.300;6.614;2023-06-14T10:32:27;23.60;99.90
52943;DHT22;38809;53.300;6.614;2023-06-14T10:34:57;23.60;99.90
52943;DHT22;38809;53.300;6.614;2023-06-14T10:37:22;23.40;99.90
52943;DHT22;38809;53.300;6.614;2023-06-14T10:39:49;23.40;99.90
52943;DHT22;38809;53.300;6.614;2023-06-14T10:42:15;23.60;99.90
52943;DHT22;38809;53.300;6.614;2023-06-14T10:44:41;23.90;99.90
52943;DHT22;38809;53.300;6.614;2023-06-14T10:47:13;23.40;99.90
52943;DHT22;38809;53.300;6.614;2023-06-14T10:49:45;23.40;99.90
52943;DHT22;38809;53.300;6.614;2023-06-14T10:52:15;23.50;99.90
52943;DHT22;38809;53.300;6.614;2023-06-14T10:57:21;23.60;99.90
52943;DHT22;38809;53.300;6.614;2023-06-14T10:59:46;23.50;99.90
52943;DHT22;38809;53.300;6.614;2023-06-14T11:04:48;23.30;99.90
52943;DHT22;38809;53.300;6.614;2023-06-14T11:10:05;25.40;99.90
52943;DHT22;38809;53.300;6.614;2023-06-14T11:12:35;24.00;99.90
52943;DHT22;38809;53.300;6.614;2023-06-14T11:15:02;23.90;99.90
52943;DHT22;38809;53.300;6.614;2023-06-14T11:17:28;23.60;99.90
52943;DHT22;38809;53.300;6.614;2023-06-14T11:20:11;23.80;99.90
52943;DHT22;38809;53.300;6.614;2023-06-14T11:22:41;23.60;99.90
52943;DHT22;38809;53.300;6.614;2023-06-14T11:25:13;23.80;99.90
52943;DHT22;38809;53.300;6.614;2023-06-14T11:27:41;23.50;99.90
52943;DHT22;38809;53.300;6.614;2023-06-14T11:30:07;23.80;99.90
52943;DHT22;38809;53.300;6.614;2023-06-14T11:32:32;23.50;99.90
52943;DHT22;38809;53.300;6.614;2023-06-14T11:34:58;24.20;99.90
52943;DHT22;38809;53.300;6.614;2023-06-14T11:37:27;24.10;99.90
52943;DHT22;38809;53.300;6.614;2023-06-14T11:39:57;23.60;99.90
52943;DHT22;38809;53.300;6.614;2023-06-14T11:42:24;23.70;99.90
52943;DHT22;38809;53.300;6.614;2023-06-14T11:44:49;23.00;99.90
52943;DHT22;38809;53.300;6.614;2023-06-14T11:47:15;24.00;99.90
52943;DHT22;38809;53.300;6.614;2023-06-14T11:49:41;24.20;99.90
52943;DHT22;38809;53.300;6.614;2023-06-14T11:52:07;24.00;99.90
52943;DHT22;38809;53.300;6.614;2023-06-14T11:54:33;24.60;99.90
52943;DHT22;38809;53.300;6.614;2023-06-14T11:56:58;24.30;99.90
52943;DHT22;38809;53.300;6.614;2023-06-14T11:59:24;24.40;99.90
52943;DHT22;38809;53.300;6.614;2023-06-14T12:01:50;24.40;99.90
52943;DHT22;38809;53.300;6.614;2023-06-14T12:04:24;24.20;99.90
52943;DHT22;38809;53.300;6.614;2023-06-14T12:06:51;24.10;99.60
52943;DHT22;38809;53.300;6.614;2023-06-14T12:09:18;23.70;98.60
52943;DHT22;38809;53.300;6.614;2023-06-14T12:11:45;24.00;98.50
52943;DHT22;38809;53.300;6.614;2023-06-14T12:14:10;24.00;99.80
52943;DHT22;38809;53.300;6.614;2023-06-14T12:16:39;24.20;99.10
52943;DHT22;38809;53.300;6.614;2023-06-14T12:19:11;24.50;99.60
52943;DHT22;38809;53.300;6.614;2023-06-14T12:21:37;24.60;99.60
52943;DHT22;38809;53.300;6.614;2023-06-14T12:24:06;24.40;99.40
52943;DHT22;38809;53.300;6.614;2023-06-14T12:26:32;23.80;99.80
52943;DHT22;38809;53.300;6.614;2023-06-14T12:28:58;24.10;99.60
52943;DHT22;38809;53.300;6.614;2023-06-14T12:31:24;23.90;99.90
52943;DHT22;38809;53.300;6.614;2023-06-14T12:33:49;23.70;99.20
52943;DHT22;38809;53.300;6.614;2023-06-14T12:36:15;24.00;99.00
52943;DHT22;38809;53.300;6.614;2023-06-14T12:38:42;24.00;99.30
52943;DHT22;38809;53.300;6.614;2023-06-14T12:41:07;24.30;99.90
52943;DHT22;38809;53.300;6.614;2023-06-14T12:43:33;23.60;98.10
52943;DHT22;38809;53.300;6.614;2023-06-14T12:45:59;24.10;99.00
52943;DHT22;38809;53.300;6.614;2023-06-14T12:48:25;24.40;99.90
52943;DHT22;38809;53.300;6.614;2023-06-14T12:50:52;23.80;99.20
52943;DHT22;38809;53.300;6.614;2023-06-14T12:53:18;23.30;99.70
52943;DHT22;38809;53.300;6.614;2023-06-14T12:55:44;24.10;99.90
52943;DHT22;38809;53.300;6.614;2023-06-14T12:58:10;23.90;98.80
52943;DHT22;38809;53.300;6.614;2023-06-14T13:00:37;22.80;99.50
52943;DHT22;38809;53.300;6.614;2023-06-14T13:03:03;23.50;99.70
52943;DHT22;38809;53.300;6.614;2023-06-14T13:05:29;23.80;99.30
52943;DHT22;38809;53.300;6.614;2023-06-14T13:07:56;23.30;99.90
52943;DHT22;38809;53.300;6.614;2023-06-14T13:10:22;23.30;99.60
52943;DHT22;38809;53.300;6.614;2023-06-14T13:12:47;23.70;99.90
52943;DHT22;38809;53.300;6.614;2023-06-14T13:15:13;23.60;99.90
52943;DHT22;38809;53.300;6.614;2023-06-14T13:17:39;23.40;99.80
52943;DHT22;38809;53.300;6.614;2023-06-14T13:20:05;23.40;99.30
52943;DHT22;38809;53.300;6.614;2023-06-14T13:22:31;23.20;99.20
52943;DHT22;38809;53.300;6.614;2023-06-14T13:24:56;24.00;99.90
52943;DHT22;38809;53.300;6.614;2023-06-14T13:27:22;24.30;99.90
52943;DHT22;38809;53.300;6.614;2023-06-14T13:29:49;24.00;99.00
52943;DHT22;38809;53.300;6.614;2023-06-14T13:32:14;23.70;99.70
52943;DHT22;38809;53.300;6.614;2023-06-14T13:34:40;23.40;99.90
52943;DHT22;38809;53.300;6.614;2023-06-14T13:37:05;23.60;99.90
52943;DHT22;38809;53.300;6.614;2023-06-14T13:39:31;24.10;99.80
52943;DHT22;38809;53.300;6.614;2023-06-14T13:41:57;24.50;99.90
52943;DHT22;38809;53.300;6.614;2023-06-14T13:44:22;24.60;98.90
52943;DHT22;38809;53.300;6.614;2023-06-14T13:46:48;23.90;98.60
52943;DHT22;38809;53.300;6.614;2023-06-14T13:49:13;23.90;98.60
52943;DHT22;38809;53.300;6.614;2023-06-14T13:51:39;23.50;98.20
52943;DHT22;38809;53.300;6.614;2023-06-14T13:54:05;23.80;99.20
52943;DHT22;38809;53.300;6.614;2023-06-14T13:56:30;24.20;98.80
52943;DHT22;38809;53.300;6.614;2023-06-14T13:58:56;24.40;99.90
52943;DHT22;38809;53.300;6.614;2023-06-14T14:01:22;24.20;99.00
52943;DHT22;38809;53.300;6.614;2023-06-14T14:03:48;23.90;99.10
52943;DHT22;38809;53.300;6.614;2023-06-14T14:06:15;23.80;99.30
52943;DHT22;38809;53.300;6.614;2023-06-14T14:08:41;23.70;98.70
52943;DHT22;38809;53.300;6.614;2023-06-14T14:11:06;24.00;99.60
52943;DHT22;38809;53.300;6.614;2023-06-14T14:13:33;24.30;99.60
52943;DHT22;38809;53.300;6.614;2023-06-14T14:15:59;24.50;98.60
52943;DHT22;38809;53.300;6.614;2023-06-14T14:18:25;24.30;98.80
52943;DHT22;38809;53.300;6.614;2023-06-14T14:20:50;23.50;98.90
52943;DHT22;38809;53.300;6.614;2023-06-14T14:23:16;23.30;98.70
52943;DHT22;38809;53.300;6.614;2023-06-14T14:25:41;23.00;99.40
52943;DHT22;38809;53.300;6.614;2023-06-14T14:28:07;23.50;99.90
52943;DHT22;38809;53.300;6.614;2023-06-14T14:30:33;23.80;99.60
52943;DHT22;38809;53.300;6.614;2023-06-14T14:32:59;23.80;98.60
52943;DHT22;38809;53.300;6.614;2023-06-14T14:35:24;24.20;98.80
52943;DHT22;38809;53.300;6.614;2023-06-14T14:37:55;24.20;98.60
52943;DHT22;38809;53.300;6.614;2023-06-14T14:40:21;24.40;99.10
52943;DHT22;38809;53.300;6.614;2023-06-14T14:42:47;24.60;98.50
52943;DHT22;38809;53.300;6.614;2023-06-14T14:45:12;24.60;98.80
52943;DHT22;38809;53.300;6.614;2023-06-14T14:47:38;24.80;97.80
52943;DHT22;38809;53.300;6.614;2023-06-14T14:50:04;24.40;97.70
52943;DHT22;38809;53.300;6.614;2023-06-14T14:52:30;24.30;99.90
52943;DHT22;38809;53.300;6.614;2023-06-14T14:54:55;23.70;99.90
52943;DHT22;38809;53.300;6.614;2023-06-14T14:57:21;23.30;99.90
52943;DHT22;38809;53.300;6.614;2023-06-14T14:59:47;23.00;99.90
52943;DHT22;38809;53.300;6.614;2023-06-14T15:02:12;23.20;99.90
52943;DHT22;38809;53.300;6.614;2023-06-14T15:04:38;23.10;99.90
52943;DHT22;38809;53.300;6.614;2023-06-14T15:07:03;23.40;99.90
52943;DHT22;38809;53.300;6.614;2023-06-14T15:09:29;23.50;99.90
52943;DHT22;38809;53.300;6.614;2023-06-14T15:11:55;23.50;99.90
52943;DHT22;38809;53.300;6.614;2023-06-14T15:14:20;23.70;99.90
52943;DHT22;38809;53.300;6.614;2023-06-14T15:16:46;23.50;99.90
52943;DHT22;38809;53.300;6.614;2023-06-14T15:19:11;23.70;99.90
52943;DHT22;38809;53.300;6.614;2023-06-14T15:21:37;23.60;99.90
52943;DHT22;38809;53.300;6.614;2023-06-14T15:24:02;23.40;99.90
52943;DHT22;38809;53.300;6.614;2023-06-14T15:26:28;23.40;99.90
52943;DHT22;38809;53.300;6.614;2023-06-14T15:28:54;23.10;99.90
52943;DHT22;38809;53.300;6.614;2023-06-14T15:31:20;23.10;99.90
52943;DHT22;38809;53.300;6.614;2023-06-14T15:33:45;23.20;99.90
52943;DHT22;38809;53.300;6.614;2023-06-14T15:36:11;23.30;99.90
52943;DHT22;38809;53.300;6.614;2023-06-14T15:38:36;23.50;99.90
52943;DHT22;38809;53.300;6.614;2023-06-14T15:41:02;23.40;99.90
52943;DHT22;38809;53.300;6.614;2023-06-14T15:43:28;23.00;99.90
52943;DHT22;38809;53.300;6.614;2023-06-14T15:45:56;22.70;99.90
52943;DHT22;38809;53.300;6.614;2023-06-14T15:48:21;22.80;99.90
52943;DHT22;38809;53.300;6.614;2023-06-14T15:50:47;22.90;99.90
52943;DHT22;38809;53.300;6.614;2023-06-14T15:53:12;23.10;99.90
52943;DHT22;38809;53.300;6.614;2023-06-14T15:55:38;22.90;99.90
52943;DHT22;38809;53.300;6.614;2023-06-14T15:58:03;23.10;99.90
52943;DHT22;38809;53.300;6.614;2023-06-14T16:00:29;23.00;99.90
52943;DHT22;38809;53.300;6.614;2023-06-14T16:02:55;22.80;99.90
52943;DHT22;38809;53.300;6.614;2023-06-14T16:05:20;22.70;99.90
52943;DHT22;38809;53.300;6.614;2023-06-14T16:07:46;22.90;99.90
52943;DHT22;38809;53.300;6.614;2023-06-14T16:10:13;22.80;99.90
52943;DHT22;38809;53.300;6.614;2023-06-14T16:12:38;23.00;99.90
52943;DHT22;38809;53.300;6.614;2023-06-14T16:15:04;22.90;99.90
52943;DHT22;38809;53.300;6.614;2023-06-14T16:17:30;22.70;99.90
52943;DHT22;38809;53.300;6.614;2023-06-14T16:19:55;22.70;99.90
52943;DHT22;38809;53.300;6.614;2023-06-14T16:22:21;22.80;99.90
52943;DHT22;38809;53.300;6.614;2023-06-14T16:24:46;22.70;99.90
52943;DHT22;38809;53.300;6.614;2023-06-14T16:27:12;22.60;99.90
52943;DHT22;38809;53.300;6.614;2023-06-14T16:29:39;22.50;99.90
52943;DHT22;38809;53.300;6.614;2023-06-14T16:32:04;22.50;99.90
52943;DHT22;38809;53.300;6.614;2023-06-14T16:34:30;22.50;99.90
52943;DHT22;38809;53.300;6.614;2023-06-14T16:36:58;22.40;99.90
52943;DHT22;38809;53.300;6.614;2023-06-14T16:39:23;22.60;99.90
52943;DHT22;38809;53.300;6.614;2023-06-14T16:41:49;22.40;99.90
52943;DHT22;38809;53.300;6.614;2023-06-14T16:44:14;22.50;99.90
52943;DHT22;38809;53.300;6.614;2023-06-14T16:46:40;22.50;99.90
52943;DHT22;38809;53.300;6.614;2023-06-14T16:49:06;22.30;99.90
52943;DHT22;38809;53.300;6.614;2023-06-14T16:51:31;22.30;99.90
52943;DHT22;38809;53.300;6.614;2023-06-14T16:53:57;22.40;99.90
52943;DHT22;38809;53.300;6.614;2023-06-14T16:56:23;22.10;99.90
52943;DHT22;38809;53.300;6.614;2023-06-14T16:58:52;22.30;99.90
52943;DHT22;38809;53.300;6.614;2023-06-14T17:01:18;22.00;99.90
52943;DHT22;38809;53.300;6.614;2023-06-14T17:03:44;22.10;99.90
52943;DHT22;38809;53.300;6.614;2023-06-14T17:06:09;22.10;99.90
52943;DHT22;38809;53.300;6.614;2023-06-14T17:08:35;22.00;99.90
52943;DHT22;38809;53.300;6.614;2023-06-14T17:11:01;21.80;99.90
52943;DHT22;38809;53.300;6.614;2023-06-14T17:13:26;21.90;99.90
52943;DHT22;38809;53.300;6.614;2023-06-14T17:15:52;21.80;99.90
52943;DHT22;38809;53.300;6.614;2023-06-14T17:18:17;21.80;99.90
52943;DHT22;38809;53.300;6.614;2023-06-14T17:20:43;21.70;99.90
52943;DHT22;38809;53.300;6.614;2023-06-14T17:23:09;21.80;99.90